Rapid City, SD

4:51 AM MDT on October 22, 2014 (GMT -0600)
Radar Hills | Change Station
CLOSE
Current Station
Personal Weather Station
Location: Box Elder, SD
Elevation: 3152 ft
Nearby Weather Stations

Elev 3152 ft 44.10 °N, 103.09 °W | Updated 42 seconds ago

Partly Cloudy
Partly Cloudy
56.3 °F
Feels Like 56.3 °F
N
4.0
Wind Variable Wind from NNW
Gusts 4.0 mph

Today
High -- | Low -- °F
--% Chance of Precip.
Yesterday
High -- | Low -- °F
Precip. -- in
7:16 AM 5:57 PM
Waning Crescent, 2% visible
Pressure 29.81 in
Visibility 10.0 miles
Clouds Clear
Dew Point 36 °F
Humidity 47%
Rainfall 0.00 in
Snow Depth Not available.
UV 0 out of 12
Pollen 2.90 out of 12
Air Quality Not available.
Flu Activity Sporadic
METAR KRAP 220952Z AUTO 36016KT 10SM CLR 14/03 A2987 RMK AO2 SLP092 T01390028

More Conditions Fewer Conditions

Pressure 29.81 in
Visibility 10.0 miles
Clouds Clear
Dew Point 36 °F
Humidity 47%
Rainfall 0.00 in
Snow Depth Not available.
UV 0 out of 12
Pollen 2.90 out of 12
Air Quality Not available.
Flu Activity Sporadic
METAR KRAP 220952Z AUTO 36016KT 10SM CLR 14/03 A2987 RMK AO2 SLP092 T01390028

More Conditions Fewer Conditions

10-Day Weather Forecast

Almanac

Astronomy

Oct. 22, 2014 Rise Set
Actual Time 7:16 AM MDT 5:57 PM MDT
Civil Twilight 6:47 AM MDT 6:26 PM MDT
Nautical Twilight 6:13 AM MDT 7:00 PM MDT
Astronomical Twilight 5:39 AM MDT 7:33 PM MDT
Moon 5:57 AM MDT 5:27 PM MDT
Length of Visible Light 11h 39m
Length of Day
10h 40m
Tomorrow will be 2m 51s shorter.
Waning Crescent, 2% of the Moon is Illuminated
Today
Waning Crescent
Oct 23
New
Oct 30
First Quarter
Nov 6
Full
Nov 14
Last Quarter

Today's Extremes

State Highs State Lows

Community

WunderPhotos

Upload Photos

1,763,902 photos uploaded!

Nearby

Snow Depth

Station Depth Elevation
North Rapid Creek 0 in 6130 ft
Blind Park 0 in 6890 ft

Earthquake Activity

City Distance Mag. Time & Date
No recent earthquake activity has been reported nearby.
Minimum magnitude displayed is 2.5.

Coastal Water Temperatures

Place Temperature
No Stations Reporting

Nearby Weather Stations